Aviation Digital Data Service (ADDS)

Output produced by METARs form (0521 UTC 21 January 2019)
found at http://www.aviationweather.gov/metar/data/
 
Forecast for: OPDG (DERA GHAZI , PK)
Text: TAF OPDG 210400Z 2106/2124 05010KT 4000 FU FEW040 SCT120 TX17/2110Z
Forecast period: 0600 UTC 21 January 2019 to 0000 UTC 22 January 2019
Forecast type: FROM: standard forecast or significant change
Winds: from the NE (50 degrees) at 12 MPH (10 knots; 5.1 m/s)
Visibility: 2.49 miles (4.01 km)
Ceiling: at least 12,000 feet AGL
Clouds: few clouds at 4000 feet AGL
scattered clouds at 12000 feet AGL
Weather: FU  (smoke)
Text: PROB30
Forecast period: 0600 to 1000 UTC 21 January 2019
Forecast type: TEMPORARY: The following changes expected for less than half the time period
Winds: from the NE (50 degrees) at 12 MPH (10 knots; 5.1 m/s)
Visibility: 1.86 miles (2.99 km)
Ceiling: 10000 feet AGL
Clouds: scattered clouds at 4000 feet AGL
overcast cloud deck at 10000 feet AGL
Weather: DZ  (moderate drizzle)